Terminal Aerodrome Forecast
Issued by NWS Sterling, VA

Home | Current Version | Previous Version | Text Only | Print | Product List | Glossary On
Versions: 1 2 3 4 5 6 7 8 9 10 11 12 13 14 15 16 17 18 19 20 21 22 23 24 25 26 27
000
FTUS41 KLWX 062050 AAA
TAFDCA
TAF AMD
KDCA 062050Z 0621/0718 11006KT P6SM SHRA VCTS BKN050CB
     FM070100 14004KT P6SM BKN090
     FM071000 20005KT P6SM BKN090
     FM071400 24005KT P6SM SCT250=

USA.gov is the U.S. government's official web portal to all federal, state and local government web resources and services.